sensor_id;sensor_type;location;lat;lon;timestamp;temperature;humidity
240;DHT22;104;53.590;10.004;2023-03-31T00:01:38;7.80;96.80
240;DHT22;104;53.590;10.004;2023-03-31T00:04:09;7.80;96.80
240;DHT22;104;53.590;10.004;2023-03-31T00:06:38;7.80;96.80
240;DHT22;104;53.590;10.004;2023-03-31T00:09:08;7.80;96.80
240;DHT22;104;53.590;10.004;2023-03-31T00:11:36;7.80;96.80
240;DHT22;104;53.590;10.004;2023-03-31T00:14:03;7.80;96.80
240;DHT22;104;53.590;10.004;2023-03-31T00:16:31;7.80;96.80
240;DHT22;104;53.590;10.004;2023-03-31T00:18:58;7.80;96.80
240;DHT22;104;53.590;10.004;2023-03-31T00:21:28;7.80;96.80
240;DHT22;104;53.590;10.004;2023-03-31T00:23:59;7.70;96.80
240;DHT22;104;53.590;10.004;2023-03-31T00:26:27;7.60;96.80
240;DHT22;104;53.590;10.004;2023-03-31T00:28:55;7.60;96.80
240;DHT22;104;53.590;10.004;2023-03-31T00:31:23;7.60;96.80
240;DHT22;104;53.590;10.004;2023-03-31T00:33:51;7.60;96.80
240;DHT22;104;53.590;10.004;2023-03-31T00:36:18;7.60;96.80
240;DHT22;104;53.590;10.004;2023-03-31T00:38:53;7.60;96.80
240;DHT22;104;53.590;10.004;2023-03-31T00:41:20;7.60;96.80
240;DHT22;104;53.590;10.004;2023-03-31T00:44:09;7.60;96.80
240;DHT22;104;53.590;10.004;2023-03-31T00:46:41;7.60;96.80
240;DHT22;104;53.590;10.004;2023-03-31T00:49:16;7.60;96.80
240;DHT22;104;53.590;10.004;2023-03-31T00:51:47;7.60;96.80
240;DHT22;104;53.590;10.004;2023-03-31T00:54:17;7.70;96.80
240;DHT22;104;53.590;10.004;2023-03-31T00:56:47;7.60;96.80
240;DHT22;104;53.590;10.004;2023-03-31T00:59:15;7.70;96.80
240;DHT22;104;53.590;10.004;2023-03-31T01:01:45;7.70;96.80
240;DHT22;104;53.590;10.004;2023-03-31T01:04:15;7.70;96.80
240;DHT22;104;53.590;10.004;2023-03-31T01:06:53;7.60;96.80
240;DHT22;104;53.590;10.004;2023-03-31T01:09:29;7.60;96.80
240;DHT22;104;53.590;10.004;2023-03-31T01:12:00;7.60;96.80
240;DHT22;104;53.590;10.004;2023-03-31T01:14:27;7.50;96.80
240;DHT22;104;53.590;10.004;2023-03-31T01:19:31;7.50;96.80
240;DHT22;104;53.590;10.004;2023-03-31T01:22:35;7.40;96.80
240;DHT22;104;53.590;10.004;2023-03-31T01:28:26;7.30;96.80
240;DHT22;104;53.590;10.004;2023-03-31T01:34:27;7.20;96.80
240;DHT22;104;53.590;10.004;2023-03-31T01:40:17;7.10;96.80
240;DHT22;104;53.590;10.004;2023-03-31T01:42:51;7.10;96.80
240;DHT22;104;53.590;10.004;2023-03-31T01:45:27;7.10;96.80
240;DHT22;104;53.590;10.004;2023-03-31T01:48:02;7.10;96.80
240;DHT22;104;53.590;10.004;2023-03-31T01:50:35;7.20;96.80
240;DHT22;104;53.590;10.004;2023-03-31T01:53:07;7.10;96.80
240;DHT22;104;53.590;10.004;2023-03-31T01:55:43;7.10;96.80
240;DHT22;104;53.590;10.004;2023-03-31T01:58:18;7.10;96.80
240;DHT22;104;53.590;10.004;2023-03-31T02:00:49;7.10;96.80
240;DHT22;104;53.590;10.004;2023-03-31T02:03:24;7.30;96.80
240;DHT22;104;53.590;10.004;2023-03-31T02:05:56;7.30;96.80
240;DHT22;104;53.590;10.004;2023-03-31T02:08:26;7.40;96.80
240;DHT22;104;53.590;10.004;2023-03-31T02:10:58;7.40;96.80
240;DHT22;104;53.590;10.004;2023-03-31T02:13:26;7.50;96.80
240;DHT22;104;53.590;10.004;2023-03-31T02:15:57;7.50;96.80
240;DHT22;104;53.590;10.004;2023-03-31T02:18:28;7.50;96.80
240;DHT22;104;53.590;10.004;2023-03-31T02:20:58;7.50;96.80
240;DHT22;104;53.590;10.004;2023-03-31T02:23:28;7.50;96.80
240;DHT22;104;53.590;10.004;2023-03-31T02:26:00;7.40;96.80
240;DHT22;104;53.590;10.004;2023-03-31T02:28:30;7.30;96.80
240;DHT22;104;53.590;10.004;2023-03-31T02:31:05;7.30;96.80
240;DHT22;104;53.590;10.004;2023-03-31T02:33:33;7.40;96.80
240;DHT22;104;53.590;10.004;2023-03-31T02:36:01;7.40;96.80
240;DHT22;104;53.590;10.004;2023-03-31T02:38:30;7.50;96.80
240;DHT22;104;53.590;10.004;2023-03-31T02:41:00;7.60;96.80
240;DHT22;104;53.590;10.004;2023-03-31T02:43:27;7.60;96.80
240;DHT22;104;53.590;10.004;2023-03-31T02:45:54;7.70;96.80
240;DHT22;104;53.590;10.004;2023-03-31T02:48:22;7.80;96.80
240;DHT22;104;53.590;10.004;2023-03-31T02:54:19;7.80;96.80
240;DHT22;104;53.590;10.004;2023-03-31T02:57:04;7.80;96.80
240;DHT22;104;53.590;10.004;2023-03-31T02:59:43;7.80;96.80
240;DHT22;104;53.590;10.004;2023-03-31T03:02:17;7.80;96.80
240;DHT22;104;53.590;10.004;2023-03-31T03:05:06;7.80;96.80
240;DHT22;104;53.590;10.004;2023-03-31T03:07:42;7.80;96.80
240;DHT22;104;53.590;10.004;2023-03-31T03:10:16;7.90;96.80
240;DHT22;104;53.590;10.004;2023-03-31T03:12:54;7.90;96.80
240;DHT22;104;53.590;10.004;2023-03-31T03:15:26;7.90;96.80
240;DHT22;104;53.590;10.004;2023-03-31T03:17:57;8.00;96.80
240;DHT22;104;53.590;10.004;2023-03-31T03:20:24;8.00;96.80
240;DHT22;104;53.590;10.004;2023-03-31T03:22:51;8.00;96.80
240;DHT22;104;53.590;10.004;2023-03-31T03:25:19;8.00;96.80
240;DHT22;104;53.590;10.004;2023-03-31T03:27:47;8.00;96.80
240;DHT22;104;53.590;10.004;2023-03-31T03:30:14;8.00;96.80
240;DHT22;104;53.590;10.004;2023-03-31T03:32:41;8.00;96.80
240;DHT22;104;53.590;10.004;2023-03-31T03:35:09;8.00;96.80
240;DHT22;104;53.590;10.004;2023-03-31T03:37:36;8.00;96.80
240;DHT22;104;53.590;10.004;2023-03-31T03:40:04;8.00;96.80
240;DHT22;104;53.590;10.004;2023-03-31T03:42:31;8.00;96.80
240;DHT22;104;53.590;10.004;2023-03-31T03:45:00;8.00;96.80
240;DHT22;104;53.590;10.004;2023-03-31T03:47:27;7.90;96.80
240;DHT22;104;53.590;10.004;2023-03-31T03:49:54;8.00;96.80
240;DHT22;104;53.590;10.004;2023-03-31T03:52:21;7.90;96.80
240;DHT22;104;53.590;10.004;2023-03-31T03:54:48;8.00;96.80
240;DHT22;104;53.590;10.004;2023-03-31T03:57:15;7.90;96.80
240;DHT22;104;53.590;10.004;2023-03-31T03:59:42;7.90;96.80
240;DHT22;104;53.590;10.004;2023-03-31T04:02:10;8.00;96.80
240;DHT22;104;53.590;10.004;2023-03-31T04:04:37;8.00;96.80
240;DHT22;104;53.590;10.004;2023-03-31T04:09:37;8.00;96.80
240;DHT22;104;53.590;10.004;2023-03-31T04:12:04;8.00;96.80
240;DHT22;104;53.590;10.004;2023-03-31T04:14:31;8.00;96.80
240;DHT22;104;53.590;10.004;2023-03-31T04:16:58;8.00;96.80
240;DHT22;104;53.590;10.004;2023-03-31T04:19:26;8.10;96.80
240;DHT22;104;53.590;10.004;2023-03-31T04:24:27;8.10;96.80
240;DHT22;104;53.590;10.004;2023-03-31T04:26:58;8.10;96.80
240;DHT22;104;53.590;10.004;2023-03-31T04:29:25;8.20;96.80
240;DHT22;104;53.590;10.004;2023-03-31T04:31:58;8.20;96.80
240;DHT22;104;53.590;10.004;2023-03-31T04:34:27;8.20;96.80
240;DHT22;104;53.590;10.004;2023-03-31T04:36:59;8.20;96.80
240;DHT22;104;53.590;10.004;2023-03-31T04:39:27;8.30;96.80
240;DHT22;104;53.590;10.004;2023-03-31T04:41:56;8.20;96.80
240;DHT22;104;53.590;10.004;2023-03-31T04:44:23;8.20;96.80
240;DHT22;104;53.590;10.004;2023-03-31T04:46:50;8.10;96.80
240;DHT22;104;53.590;10.004;2023-03-31T04:49:17;8.10;96.80
240;DHT22;104;53.590;10.004;2023-03-31T04:51:46;8.10;96.80
240;DHT22;104;53.590;10.004;2023-03-31T04:54:13;8.10;96.80
240;DHT22;104;53.590;10.004;2023-03-31T04:56:39;8.20;96.80
240;DHT22;104;53.590;10.004;2023-03-31T04:59:06;8.20;96.80
240;DHT22;104;53.590;10.004;2023-03-31T05:01:34;8.20;96.80
240;DHT22;104;53.590;10.004;2023-03-31T05:04:01;8.20;96.80
240;DHT22;104;53.590;10.004;2023-03-31T05:06:28;8.20;96.80
240;DHT22;104;53.590;10.004;2023-03-31T05:08:57;8.20;96.80
240;DHT22;104;53.590;10.004;2023-03-31T05:11:24;8.30;96.80
240;DHT22;104;53.590;10.004;2023-03-31T05:13:51;8.30;96.80
240;DHT22;104;53.590;10.004;2023-03-31T05:16:18;8.30;96.80
240;DHT22;104;53.590;10.004;2023-03-31T05:18:46;8.30;96.80
240;DHT22;104;53.590;10.004;2023-03-31T05:23:42;8.30;96.80
240;DHT22;104;53.590;10.004;2023-03-31T05:26:11;8.30;96.80
240;DHT22;104;53.590;10.004;2023-03-31T05:28:38;8.40;96.80
240;DHT22;104;53.590;10.004;2023-03-31T05:31:07;8.40;96.80
240;DHT22;104;53.590;10.004;2023-03-31T05:33:34;8.40;96.80
240;DHT22;104;53.590;10.004;2023-03-31T05:36:05;8.40;96.80
240;DHT22;104;53.590;10.004;2023-03-31T05:38:32;8.40;96.80
240;DHT22;104;53.590;10.004;2023-03-31T05:41:00;8.40;96.80
240;DHT22;104;53.590;10.004;2023-03-31T05:43:28;8.30;96.80
240;DHT22;104;53.590;10.004;2023-03-31T05:45:55;8.30;96.80
240;DHT22;104;53.590;10.004;2023-03-31T05:50:49;8.30;96.80
240;DHT22;104;53.590;10.004;2023-03-31T05:53:16;8.30;96.80
240;DHT22;104;53.590;10.004;2023-03-31T05:55:44;8.30;96.80
240;DHT22;104;53.590;10.004;2023-03-31T06:00:39;8.50;96.80
240;DHT22;104;53.590;10.004;2023-03-31T06:03:09;8.40;96.80
240;DHT22;104;53.590;10.004;2023-03-31T06:05:36;8.50;96.80
240;DHT22;104;53.590;10.004;2023-03-31T06:08:03;8.50;96.80
240;DHT22;104;53.590;10.004;2023-03-31T06:10:30;8.50;96.80
240;DHT22;104;53.590;10.004;2023-03-31T06:15:24;8.60;96.80
240;DHT22;104;53.590;10.004;2023-03-31T06:17:53;8.60;96.80
240;DHT22;104;53.590;10.004;2023-03-31T06:20:20;8.50;96.80
240;DHT22;104;53.590;10.004;2023-03-31T06:22:47;8.60;96.80
240;DHT22;104;53.590;10.004;2023-03-31T06:25:14;8.60;96.80
240;DHT22;104;53.590;10.004;2023-03-31T06:27:41;8.60;96.80
240;DHT22;104;53.590;10.004;2023-03-31T06:30:09;8.60;96.80
240;DHT22;104;53.590;10.004;2023-03-31T06:32:36;8.60;96.80
240;DHT22;104;53.590;10.004;2023-03-31T06:35:05;8.80;96.80
240;DHT22;104;53.590;10.004;2023-03-31T06:37:32;8.90;96.80
240;DHT22;104;53.590;10.004;2023-03-31T06:39:59;9.00;96.80
240;DHT22;104;53.590;10.004;2023-03-31T06:42:26;9.00;96.80
240;DHT22;104;53.590;10.004;2023-03-31T06:44:53;9.00;96.80
240;DHT22;104;53.590;10.004;2023-03-31T06:47:21;9.00;96.80
240;DHT22;104;53.590;10.004;2023-03-31T06:52:17;9.00;96.80
240;DHT22;104;53.590;10.004;2023-03-31T06:54:44;9.00;96.80
240;DHT22;104;53.590;10.004;2023-03-31T06:57:11;9.00;96.80
240;DHT22;104;53.590;10.004;2023-03-31T06:59:38;9.00;96.80
240;DHT22;104;53.590;10.004;2023-03-31T07:02:06;9.20;96.80
240;DHT22;104;53.590;10.004;2023-03-31T07:04:33;9.30;96.80
240;DHT22;104;53.590;10.004;2023-03-31T07:09:28;9.40;96.80
240;DHT22;104;53.590;10.004;2023-03-31T07:11:55;9.40;96.80
240;DHT22;104;53.590;10.004;2023-03-31T07:14:22;9.50;96.80
240;DHT22;104;53.590;10.004;2023-03-31T07:16:49;9.60;96.80
240;DHT22;104;53.590;10.004;2023-03-31T07:19:17;9.70;96.80
240;DHT22;104;53.590;10.004;2023-03-31T07:21:44;9.60;96.80
240;DHT22;104;53.590;10.004;2023-03-31T07:24:11;9.60;96.80
240;DHT22;104;53.590;10.004;2023-03-31T07:26:39;9.50;96.80
240;DHT22;104;53.590;10.004;2023-03-31T07:29:06;9.50;96.80
240;DHT22;104;53.590;10.004;2023-03-31T07:31:33;9.50;96.80
240;DHT22;104;53.590;10.004;2023-03-31T07:34:01;9.50;96.80
240;DHT22;104;53.590;10.004;2023-03-31T07:36:31;9.40;96.80
240;DHT22;104;53.590;10.004;2023-03-31T07:41:25;9.40;96.80
240;DHT22;104;53.590;10.004;2023-03-31T07:46:23;9.40;96.80
240;DHT22;104;53.590;10.004;2023-03-31T07:48:51;9.50;96.80
240;DHT22;104;53.590;10.004;2023-03-31T07:51:20;9.50;96.80
240;DHT22;104;53.590;10.004;2023-03-31T07:53:48;9.40;96.80
240;DHT22;104;53.590;10.004;2023-03-31T07:56:17;9.40;96.80
240;DHT22;104;53.590;10.004;2023-03-31T07:58:45;9.40;96.80
240;DHT22;104;53.590;10.004;2023-03-31T08:01:14;9.40;96.80
240;DHT22;104;53.590;10.004;2023-03-31T08:03:43;9.50;96.80
240;DHT22;104;53.590;10.004;2023-03-31T08:06:11;9.60;96.80
240;DHT22;104;53.590;10.004;2023-03-31T08:13:35;9.80;96.80
240;DHT22;104;53.590;10.004;2023-03-31T08:16:02;9.80;96.80
240;DHT22;104;53.590;10.004;2023-03-31T08:18:31;9.80;96.80
240;DHT22;104;53.590;10.004;2023-03-31T08:20:58;9.80;96.80
240;DHT22;104;53.590;10.004;2023-03-31T08:23:25;9.70;96.80
240;DHT22;104;53.590;10.004;2023-03-31T08:25:52;9.70;96.80
240;DHT22;104;53.590;10.004;2023-03-31T08:40:39;9.70;96.80
240;DHT22;104;53.590;10.004;2023-03-31T08:43:10;9.70;96.80
240;DHT22;104;53.590;10.004;2023-03-31T08:45:40;9.80;96.80
240;DHT22;104;53.590;10.004;2023-03-31T08:48:17;9.80;96.80
240;DHT22;104;53.590;10.004;2023-03-31T08:50:51;9.90;96.80
240;DHT22;104;53.590;10.004;2023-03-31T08:53:23;10.00;96.80
240;DHT22;104;53.590;10.004;2023-03-31T08:55:53;9.90;96.80
240;DHT22;104;53.590;10.004;2023-03-31T08:58:31;9.80;96.80
240;DHT22;104;53.590;10.004;2023-03-31T09:01:07;9.70;96.80
240;DHT22;104;53.590;10.004;2023-03-31T09:03:44;9.80;96.80
240;DHT22;104;53.590;10.004;2023-03-31T09:06:16;9.80;96.80
240;DHT22;104;53.590;10.004;2023-03-31T09:11:14;9.70;96.80
240;DHT22;104;53.590;10.004;2023-03-31T09:14:12;9.80;96.80
240;DHT22;104;53.590;10.004;2023-03-31T09:16:46;9.80;96.80
240;DHT22;104;53.590;10.004;2023-03-31T09:19:22;9.80;96.80
240;DHT22;104;53.590;10.004;2023-03-31T09:24:29;9.60;96.80
240;DHT22;104;53.590;10.004;2023-03-31T09:26:58;9.60;96.80
240;DHT22;104;53.590;10.004;2023-03-31T09:32:00;10.30;96.80
240;DHT22;104;53.590;10.004;2023-03-31T09:34:31;10.60;96.80
240;DHT22;104;53.590;10.004;2023-03-31T09:44:27;11.20;96.80
240;DHT22;104;53.590;10.004;2023-03-31T09:46:59;11.20;96.80
240;DHT22;104;53.590;10.004;2023-03-31T09:49:32;11.10;96.80
240;DHT22;104;53.590;10.004;2023-03-31T09:52:04;11.10;96.80
240;DHT22;104;53.590;10.004;2023-03-31T09:54:37;11.10;96.80
240;DHT22;104;53.590;10.004;2023-03-31T09:57:13;11.30;96.80
240;DHT22;104;53.590;10.004;2023-03-31T09:59:40;11.70;96.80
240;DHT22;104;53.590;10.004;2023-03-31T10:02:33;12.00;96.80
240;DHT22;104;53.590;10.004;2023-03-31T10:07:30;12.80;96.80
240;DHT22;104;53.590;10.004;2023-03-31T10:14:54;13.40;96.80
240;DHT22;104;53.590;10.004;2023-03-31T10:17:27;13.60;96.80
240;DHT22;104;53.590;10.004;2023-03-31T10:19:56;13.70;96.80
240;DHT22;104;53.590;10.004;2023-03-31T10:22:29;13.80;96.80
240;DHT22;104;53.590;10.004;2023-03-31T10:25:09;13.80;96.80
240;DHT22;104;53.590;10.004;2023-03-31T10:27:39;13.90;96.80
240;DHT22;104;53.590;10.004;2023-03-31T10:30:10;13.90;96.80
240;DHT22;104;53.590;10.004;2023-03-31T10:32:40;13.90;96.80
240;DHT22;104;53.590;10.004;2023-03-31T10:35:20;14.20;96.80
240;DHT22;104;53.590;10.004;2023-03-31T10:40:20;14.60;96.80
240;DHT22;104;53.590;10.004;2023-03-31T10:45:24;15.00;94.60
240;DHT22;104;53.590;10.004;2023-03-31T10:47:53;15.10;92.50
240;DHT22;104;53.590;10.004;2023-03-31T10:50:26;14.80;91.30
240;DHT22;104;53.590;10.004;2023-03-31T10:53:01;15.00;91.30
240;DHT22;104;53.590;10.004;2023-03-31T10:58:05;15.10;90.70
240;DHT22;104;53.590;10.004;2023-03-31T11:00:41;15.70;87.10
240;DHT22;104;53.590;10.004;2023-03-31T11:03:32;15.60;87.60
240;DHT22;104;53.590;10.004;2023-03-31T11:06:05;15.80;87.30
240;DHT22;104;53.590;10.004;2023-03-31T11:08:44;15.90;85.80
240;DHT22;104;53.590;10.004;2023-03-31T11:11:22;15.90;85.00
240;DHT22;104;53.590;10.004;2023-03-31T11:13:57;15.90;85.30
240;DHT22;104;53.590;10.004;2023-03-31T11:16:32;15.80;83.90
240;DHT22;104;53.590;10.004;2023-03-31T11:19:23;15.60;84.40
240;DHT22;104;53.590;10.004;2023-03-31T11:27:25;15.90;85.60
240;DHT22;104;53.590;10.004;2023-03-31T11:30:00;15.90;82.60
240;DHT22;104;53.590;10.004;2023-03-31T11:35:12;15.70;83.40
240;DHT22;104;53.590;10.004;2023-03-31T11:37:56;15.90;83.50
240;DHT22;104;53.590;10.004;2023-03-31T11:40:42;16.50;82.50
240;DHT22;104;53.590;10.004;2023-03-31T11:43:20;16.50;81.20
240;DHT22;104;53.590;10.004;2023-03-31T11:45:52;17.00;79.70
240;DHT22;104;53.590;10.004;2023-03-31T11:48:27;17.60;78.90
240;DHT22;104;53.590;10.004;2023-03-31T11:50:56;18.20;75.40
240;DHT22;104;53.590;10.004;2023-03-31T11:53:29;18.20;73.60
240;DHT22;104;53.590;10.004;2023-03-31T11:55:59;18.30;72.60
240;DHT22;104;53.590;10.004;2023-03-31T11:58:32;18.10;72.60
240;DHT22;104;53.590;10.004;2023-03-31T12:01:07;17.70;73.70
240;DHT22;104;53.590;10.004;2023-03-31T12:03:40;17.40;74.30
240;DHT22;104;53.590;10.004;2023-03-31T12:16:19;17.20;75.10
240;DHT22;104;53.590;10.004;2023-03-31T12:31:27;17.70;72.20
240;DHT22;104;53.590;10.004;2023-03-31T12:39:09;18.70;71.20
240;DHT22;104;53.590;10.004;2023-03-31T12:41:46;18.90;70.70
240;DHT22;104;53.590;10.004;2023-03-31T12:47:15;19.10;68.10
240;DHT22;104;53.590;10.004;2023-03-31T12:49:57;18.70;69.80
240;DHT22;104;53.590;10.004;2023-03-31T13:00:19;16.60;78.10
240;DHT22;104;53.590;10.004;2023-03-31T13:05:44;15.80;78.80
240;DHT22;104;53.590;10.004;2023-03-31T13:13:44;15.80;78.50
240;DHT22;104;53.590;10.004;2023-03-31T13:16:18;16.10;77.90
240;DHT22;104;53.590;10.004;2023-03-31T13:18:50;16.50;78.50
240;DHT22;104;53.590;10.004;2023-03-31T13:23:47;17.20;75.10
240;DHT22;104;53.590;10.004;2023-03-31T13:26:40;17.40;73.80
240;DHT22;104;53.590;10.004;2023-03-31T13:29:19;17.50;72.90
240;DHT22;104;53.590;10.004;2023-03-31T13:32:17;17.50;73.00
240;DHT22;104;53.590;10.004;2023-03-31T13:34:50;17.10;71.70
240;DHT22;104;53.590;10.004;2023-03-31T13:37:39;17.00;71.60
240;DHT22;104;53.590;10.004;2023-03-31T13:43:03;16.40;73.70
240;DHT22;104;53.590;10.004;2023-03-31T13:45:49;14.70;82.20
240;DHT22;104;53.590;10.004;2023-03-31T13:48:36;13.40;84.40
240;DHT22;104;53.590;10.004;2023-03-31T13:51:19;12.80;87.50
240;DHT22;104;53.590;10.004;2023-03-31T14:18:56;12.10;87.90
240;DHT22;104;53.590;10.004;2023-03-31T15:02:15;13.30;84.30
240;DHT22;104;53.590;10.004;2023-03-31T15:04:48;13.30;84.10
240;DHT22;104;53.590;10.004;2023-03-31T15:09:49;13.80;81.30
240;DHT22;104;53.590;10.004;2023-03-31T15:14:49;13.90;80.20
240;DHT22;104;53.590;10.004;2023-03-31T15:27:29;16.40;71.00
240;DHT22;104;53.590;10.004;2023-03-31T17:33:48;12.70;83.50
240;DHT22;104;53.590;10.004;2023-03-31T17:36:15;12.60;79.90
240;DHT22;104;53.590;10.004;2023-03-31T17:38:42;12.60;81.30
240;DHT22;104;53.590;10.004;2023-03-31T17:41:11;12.40;78.60
240;DHT22;104;53.590;10.004;2023-03-31T17:43:39;12.40;79.10
240;DHT22;104;53.590;10.004;2023-03-31T19:25:53;11.30;85.80
240;DHT22;104;53.590;10.004;2023-03-31T19:30:52;11.30;85.70
240;DHT22;104;53.590;10.004;2023-03-31T19:38:16;11.10;86.20
240;DHT22;104;53.590;10.004;2023-03-31T19:40:44;11.00;86.50
240;DHT22;104;53.590;10.004;2023-03-31T19:50:44;10.90;87.60
240;DHT22;104;53.590;10.004;2023-03-31T20:00:35;10.80;88.90
240;DHT22;104;53.590;10.004;2023-03-31T20:03:03;10.80;89.10
240;DHT22;104;53.590;10.004;2023-03-31T20:30:08;10.80;92.50
240;DHT22;104;53.590;10.004;2023-03-31T21:56:35;9.80;96.80
240;DHT22;104;53.590;10.004;2023-03-31T22:01:29;9.70;96.80
240;DHT22;104;53.590;10.004;2023-03-31T22:16:17;9.70;96.80
240;DHT22;104;53.590;10.004;2023-03-31T22:21:16;9.60;96.80
240;DHT22;104;53.590;10.004;2023-03-31T22:23:45;9.60;96.80
240;DHT22;104;53.590;10.004;2023-03-31T22:55:44;9.70;96.80
